Time;durP1;ratioP1;P1;durP2;ratioP2;P2;SDS_P1;SDS_P2;PMS_P1;PMS_P2;Temp;Humidity;BMP_temperature;BMP_pressure;BME280_temperature;BME280_humidity;BME280_pressure;Samples;Min_cycle;Max_cycle;Signal;HPM_P1;HPM_P2
2023/01/24 00:01:51;;;;;;;3.90;2.25;;;;;;;13.18;52.65;102020.88;7394334;19;20093;-57
2023/01/24 00:04:18;;;;;;;10.18;2.65;;;;;;;11.24;55.32;102030.13;7395574;19;20042;-56
2023/01/24 00:06:44;;;;;;;18.45;5.10;;;;;;;11.21;55.25;102026.19;7393860;19;20011;-57
2023/01/24 00:09:10;;;;;;;13.85;3.13;;;;;;;9.23;56.09;102021.13;7393117;19;20022;-56
2023/01/24 00:11:36;;;;;;;1.48;1.38;;;;;;;10.88;56.57;102024.38;7392965;19;20010;-57
2023/01/24 00:14:02;;;;;;;1.75;1.65;;;;;;;11.10;55.73;102024.78;7396875;19;20007;-56
2023/01/24 00:16:30;;;;;;;13.48;3.03;;;;;;;11.15;55.42;102021.53;7395336;19;20031;-56
2023/01/24 00:18:56;;;;;;;1.60;1.10;;;;;;;12.75;53.48;102020.41;7393177;19;20018;-56
2023/01/24 00:21:24;;;;;;;6.00;1.73;;;;;;;13.94;50.08;102023.91;7393518;19;20026;-56
2023/01/24 00:23:54;;;;;;;9.77;3.25;;;;;;;14.65;48.36;102014.06;7392855;19;20011;-56
2023/01/24 00:26:22;;;;;;;1.65;1.52;;;;;;;15.00;47.33;102007.25;7396749;19;20015;-56
2023/01/24 00:28:49;;;;;;;5.43;1.80;;;;;;;14.85;46.69;102006.97;7394840;19;20010;-57
2023/01/24 00:31:16;;;;;;;17.95;3.63;;;;;;;14.78;46.83;102001.56;7391492;19;20027;-56
2023/01/24 00:33:42;;;;;;;9.48;2.75;;;;;;;14.89;46.17;102002.00;7392969;19;20007;-57
2023/01/24 00:36:11;;;;;;;6.30;2.33;;;;;;;15.05;46.07;102006.66;7393101;19;20011;-56
2023/01/24 00:38:37;;;;;;;12.70;3.00;;;;;;;14.81;46.24;102006.25;7392446;19;20011;-56
2023/01/24 00:41:04;;;;;;;10.13;4.93;;;;;;;14.83;46.00;102003.81;7394571;19;20034;-57
2023/01/24 00:43:30;;;;;;;3.08;2.17;;;;;;;14.88;45.73;102003.22;7390902;19;20014;-57
2023/01/24 00:45:57;;;;;;;6.05;2.28;;;;;;;15.01;45.26;102003.97;7391957;19;20015;-57
2023/01/24 00:48:23;;;;;;;3.80;2.25;;;;;;;14.85;45.36;102004.16;7392986;19;20010;-57
2023/01/24 00:50:49;;;;;;;2.70;2.42;;;;;;;14.79;45.26;101997.53;7391043;19;20010;-57
2023/01/24 00:53:16;;;;;;;12.43;3.42;;;;;;;14.79;45.26;101994.72;7390369;19;20030;-57
2023/01/24 00:55:44;;;;;;;4.57;2.28;;;;;;;14.82;44.94;102001.44;7395357;19;20018;-57
2023/01/24 01:00:56;;;;;;;4.38;2.97;;;;;;;14.61;45.44;101991.75;7395630;19;20010;-57
2023/01/24 01:03:23;;;;;;;2.88;2.63;;;;;;;12.68;48.64;101992.63;7392681;19;20096;-57
2023/01/24 01:05:49;;;;;;;8.80;4.22;;;;;;;14.02;46.22;102000.03;7395632;19;20014;-57
2023/01/24 01:08:15;;;;;;;8.27;2.63;;;;;;;13.91;46.18;101991.16;7393482;19;20455;-57
2023/01/24 01:10:41;;;;;;;12.40;3.53;;;;;;;14.01;46.17;101995.69;7395843;19;20074;-57
2023/01/24 01:13:10;;;;;;;7.30;2.72;;;;;;;13.88;46.22;102001.25;7396970;19;20015;-57
2023/01/24 01:15:37;;;;;;;14.00;2.95;;;;;;;14.00;46.37;102002.50;7396319;19;20020;-57
2023/01/24 01:18:03;;;;;;;3.45;1.63;;;;;;;14.40;46.21;102014.88;7396926;19;20756;-57
2023/01/24 01:20:30;;;;;;;0.98;0.98;;;;;;;14.59;45.04;102011.03;7395221;19;20030;-57
2023/01/24 01:22:56;;;;;;;4.65;1.45;;;;;;;12.84;47.48;102010.16;7391293;19;20062;-57
2023/01/24 01:25:23;;;;;;;11.20;3.97;;;;;;;12.50;48.19;102014.63;7395585;19;20014;-57
2023/01/24 01:27:49;;;;;;;2.00;1.30;;;;;;;11.96;49.09;102006.72;7393648;19;20022;-57
2023/01/24 01:30:15;;;;;;;4.03;2.50;;;;;;;11.53;49.89;102011.59;7392299;19;20014;-57
2023/01/24 01:32:42;;;;;;;7.63;3.28;;;;;;;11.02;51.32;102009.41;7390271;19;20102;-57
2023/01/24 01:35:08;;;;;;;6.75;2.10;;;;;;;12.99;48.46;101995.81;7395179;19;20049;-57
2023/01/24 01:37:35;;;;;;;39.30;4.07;;;;;;;13.21;47.66;101996.84;7392498;19;20094;-58
2023/01/24 01:40:01;;;;;;;7.00;3.33;;;;;;;10.73;50.57;102013.91;7390837;19;20014;-57
2023/01/24 01:42:44;;;;;;;3.40;3.03;;;;;;;12.92;48.67;102000.38;7391929;19;20022;-57
2023/01/24 01:45:53;;;;;;;3.42;2.25;;;;;;;13.43;47.62;102015.38;7392839;19;20017;-56
2023/01/24 01:48:46;;;;;;;7.85;2.58;;;;;;;13.42;47.10;102013.81;7388889;19;20066;-56
2023/01/24 01:51:20;;;;;;;5.30;3.17;;;;;;;13.27;47.08;102012.66;7389507;19;20014;-56
2023/01/24 01:53:59;;;;;;;8.90;4.40;;;;;;;13.20;46.78;102012.84;7393067;19;20011;-57
2023/01/24 01:56:34;;;;;;;11.00;2.92;;;;;;;13.22;46.96;102007.56;7389915;19;20479;-57
2023/01/24 01:59:07;;;;;;;9.85;4.18;;;;;;;13.23;46.87;102006.34;7393109;19;20010;-57
2023/01/24 02:01:34;;;;;;;6.35;2.65;;;;;;;13.39;46.68;102008.31;7388565;19;20011;-56
2023/01/24 02:04:10;;;;;;;3.78;1.50;;;;;;;13.60;46.22;102007.69;7389339;19;20019;-58
2023/01/24 02:06:46;;;;;;;8.23;3.40;;;;;;;13.56;46.56;102002.19;7389476;19;20499;-57
2023/01/24 02:09:18;;;;;;;20.08;2.78;;;;;;;13.54;46.39;102015.06;7389852;19;20018;-58
2023/01/24 02:11:44;;;;;;;6.03;2.42;;;;;;;13.43;46.50;102009.78;7391240;19;20116;-57
2023/01/24 02:16:59;;;;;;;5.80;3.60;;;;;;;13.69;45.92;102005.81;7388492;19;20011;-57
2023/01/24 02:19:54;;;;;;;4.53;2.78;;;;;;;13.68;46.16;102014.69;7388536;19;20010;-57
2023/01/24 02:22:32;;;;;;;9.38;2.15;;;;;;;13.71;46.16;102015.81;7390093;19;20011;-56
2023/01/24 02:25:08;;;;;;;6.72;3.55;;;;;;;13.91;45.64;102021.97;7393269;19;20014;-56
2023/01/24 02:27:34;;;;;;;4.75;1.48;;;;;;;13.83;45.18;102020.63;7389026;19;20039;-56
2023/01/24 02:30:00;;;;;;;2.35;1.33;;;;;;;13.87;45.64;102015.72;7393589;19;20010;-57
2023/01/24 02:32:26;;;;;;;9.95;2.58;;;;;;;13.74;45.16;102014.91;7388277;19;20014;-56
2023/01/24 02:34:53;;;;;;;12.25;4.15;;;;;;;13.53;45.53;102019.13;7390999;19;20016;-56
2023/01/24 02:37:24;;;;;;;9.25;2.08;;;;;;;13.59;45.51;102015.31;7387727;19;20015;-56
2023/01/24 02:39:55;;;;;;;23.85;4.35;;;;;;;13.58;45.41;102010.94;7386932;19;20026;-56
2023/01/24 02:42:26;;;;;;;5.80;2.13;;;;;;;13.71;45.41;102013.75;7386836;19;20015;-56
2023/01/24 02:45:10;;;;;;;11.80;4.53;;;;;;;13.41;45.79;101995.44;7389793;19;20192;-56
2023/01/24 02:47:41;;;;;;;4.65;2.33;;;;;;;13.57;45.09;102014.97;7387059;19;20025;-56
2023/01/24 02:50:09;;;;;;;30.92;3.17;;;;;;;13.75;44.95;102013.69;7388411;19;20018;-57
2023/01/24 02:55:20;;;;;;;5.97;1.92;;;;;;;13.89;45.02;102011.22;7392591;19;20018;-57
2023/01/24 02:58:05;;;;;;;8.68;3.88;;;;;;;14.00;44.36;102008.09;7386354;19;20572;-56
2023/01/24 03:00:37;;;;;;;3.33;1.75;;;;;;;13.95;44.38;102008.66;7387312;19;20077;-56
2023/01/24 03:03:04;;;;;;;7.50;1.67;;;;;;;14.05;44.27;102007.56;7385241;19;20350;-56
2023/01/24 03:05:46;;;;;;;4.10;1.88;;;;;;;14.14;44.43;102005.63;7392443;19;20024;-57
2023/01/24 03:08:16;;;;;;;10.32;4.38;;;;;;;14.15;44.19;102010.03;7386091;19;20021;-57
2023/01/24 03:10:42;;;;;;;37.30;3.97;;;;;;;14.27;44.13;102006.44;7388988;19;20022;-57
2023/01/24 03:35:08;;;;;;;11.07;4.55;;;;;;;13.76;44.08;102010.44;7398812;19;20019;-56
2023/01/24 03:40:21;;;;;;;2.60;2.38;;;;;;;13.88;43.89;102011.69;7395067;19;20031;-56
2023/01/24 03:42:47;;;;;;;2.28;1.42;;;;;;;13.89;43.98;102016.03;7393373;19;20474;-56
2023/01/24 03:45:20;;;;;;;7.90;2.78;;;;;;;13.96;43.58;102007.44;7398349;19;20014;-57
2023/01/24 03:47:54;;;;;;;7.95;2.85;;;;;;;13.90;43.50;102010.00;7393943;19;20796;-57
2023/01/24 03:53:13;;;;;;;2.22;1.85;;;;;;;13.50;44.47;102014.38;7395709;19;20066;-57
2023/01/24 03:55:41;;;;;;;16.55;3.95;;;;;;;13.80;44.02;102013.91;7395417;19;20483;-57
2023/01/24 03:58:09;;;;;;;1.65;1.55;;;;;;;13.77;43.94;102016.81;7394398;19;20017;-57
2023/01/24 04:00:36;;;;;;;3.47;2.83;;;;;;;13.81;43.92;102014.69;7394355;19;20025;-56
2023/01/24 04:03:09;;;;;;;4.15;3.63;;;;;;;13.59;43.85;102009.72;7393319;19;20015;-57
2023/01/24 04:05:36;;;;;;;5.88;2.67;;;;;;;13.56;43.70;102012.59;7399309;19;20014;-57
2023/01/24 04:08:03;;;;;;;5.10;2.60;;;;;;;13.71;43.91;102019.38;7394753;19;20015;-57
2023/01/24 04:10:30;;;;;;;11.30;3.88;;;;;;;13.75;43.68;102013.69;7394586;19;20017;-57
2023/01/24 04:12:57;;;;;;;9.02;3.13;;;;;;;13.59;43.64;102017.34;7394389;19;20007;-57
2023/01/24 04:15:28;;;;;;;6.82;4.05;;;;;;;13.58;43.62;102010.16;7398173;19;20007;-57
2023/01/24 04:18:08;;;;;;;12.80;2.15;;;;;;;13.49;44.01;102007.25;7398773;19;20372;-57
2023/01/24 04:20:36;;;;;;;13.15;2.78;;;;;;;13.43;43.96;101997.78;7395593;19;20018;-57
2023/01/24 04:23:06;;;;;;;4.65;2.53;;;;;;;13.47;43.87;101992.91;7394467;19;20021;-57
2023/01/24 04:25:33;;;;;;;8.90;3.83;;;;;;;13.47;43.76;101995.69;7400081;19;20015;-57
2023/01/24 04:27:59;;;;;;;9.07;3.25;;;;;;;13.37;43.72;101994.75;7396495;19;20014;-57
2023/01/24 04:30:29;;;;;;;3.03;1.42;;;;;;;13.37;43.57;102000.34;7394144;19;20018;-57
2023/01/24 04:32:57;;;;;;;4.15;1.98;;;;;;;13.35;43.53;102000.03;7393379;19;20339;-57
2023/01/24 04:35:28;;;;;;;23.52;4.22;;;;;;;13.33;43.68;102004.47;7396203;19;20023;-57
2023/01/24 04:38:02;;;;;;;5.72;1.65;;;;;;;13.50;43.82;102003.19;7396877;19;20152;-57
2023/01/24 04:41:00;;;;;;;0.77;0.75;;;;;;;13.42;43.64;102002.63;7394973;19;20011;-57
2023/01/24 04:43:30;;;;;;;2.05;1.00;;;;;;;13.51;43.63;102005.53;7394877;19;20011;-57
2023/01/24 04:45:58;;;;;;;5.03;3.40;;;;;;;13.53;43.65;102003.09;7398119;19;20416;-57
2023/01/24 04:48:28;;;;;;;13.63;3.65;;;;;;;13.45;43.72;102006.53;7394167;19;20507;-57
2023/01/24 04:50:59;;;;;;;5.72;2.45;;;;;;;13.34;43.77;102006.84;7392811;19;20376;-57
2023/01/24 04:53:26;;;;;;;9.27;2.08;;;;;;;13.35;43.85;102011.22;7392845;19;20018;-57
2023/01/24 04:56:00;;;;;;;1.40;1.38;;;;;;;13.34;43.92;102020.81;7394268;19;20007;-57
2023/01/24 04:58:33;;;;;;;;;;;;;;;13.26;43.71;102015.88;7394456;19;20038;-58
2023/01/24 05:01:01;;;;;;;8.50;2.50;;;;;;;13.29;44.22;102021.38;7391161;19;19911;-58
2023/01/24 05:06:26;;;;;;;6.35;2.78;;;;;;;13.43;43.70;102015.38;7396693;19;20006;-57
2023/01/24 05:15:06;;;;;;;3.83;2.80;;;;;;;13.06;43.74;102037.63;7402086;19;20003;-58
2023/01/24 05:17:37;;;;;;;4.07;1.95;;;;;;;12.93;43.80;102031.91;7397060;19;20744;-57
2023/01/24 05:20:04;;;;;;;;;;;;;;;12.98;43.69;102033.38;7394650;19;20368;-58
2023/01/24 05:22:30;;;;;;;2.85;1.40;;;;;;;13.02;43.71;102034.06;7393265;19;19918;-57
2023/01/24 05:24:56;;;;;;;8.25;2.70;;;;;;;13.08;43.45;102040.75;7394306;19;20021;-57
2023/01/24 05:27:22;;;;;;;10.60;2.33;;;;;;;13.07;43.52;102053.16;7390861;19;20014;-57
2023/01/24 05:29:55;;;;;;;3.85;2.35;;;;;;;13.18;43.71;102045.28;7395078;19;20458;-57
2023/01/24 05:32:22;;;;;;;4.68;1.27;;;;;;;13.05;43.71;102055.59;7390089;19;20038;-58
2023/01/24 05:34:48;;;;;;;8.00;3.15;;;;;;;13.05;43.82;102045.22;7394076;19;20007;-57
2023/01/24 05:37:15;;;;;;;2.67;2.42;;;;;;;13.12;43.73;102047.84;7389810;19;20083;-57
2023/01/24 05:39:43;;;;;;;4.93;2.92;;;;;;;13.08;43.66;102044.31;7389727;19;20015;-57
2023/01/24 05:42:09;;;;;;;0.70;0.68;;;;;;;13.05;43.91;102050.81;7390648;19;20011;-57
2023/01/24 05:44:43;;;;;;;7.50;2.65;;;;;;;12.95;43.97;102051.81;7392962;19;20027;-57
2023/01/24 05:47:09;;;;;;;2.58;2.33;;;;;;;12.81;43.69;102041.00;7391866;19;20031;-57
2023/01/24 05:49:39;;;;;;;5.82;2.67;;;;;;;12.77;43.94;102052.28;7390108;19;20011;-57
2023/01/24 05:52:05;;;;;;;1.13;1.13;;;;;;;12.70;43.72;102057.25;7390350;19;20490;-57
2023/01/24 05:54:57;;;;;;;11.70;2.53;;;;;;;12.59;44.04;102067.91;7393726;19;20006;-57
2023/01/24 05:57:25;;;;;;;4.15;2.40;;;;;;;12.55;44.28;102064.41;7390625;19;20471;-57
2023/01/24 06:00:12;;;;;;;8.82;2.75;;;;;;;12.49;44.07;102061.38;7390774;19;20658;-57
2023/01/24 06:02:43;;;;;;;5.35;1.52;;;;;;;12.46;44.30;102061.44;7388942;19;20010;-57
2023/01/24 06:05:10;;;;;;;2.53;1.75;;;;;;;12.48;43.97;102056.19;7392846;19;20014;-57
2023/01/24 06:07:37;;;;;;;14.60;3.88;;;;;;;12.49;44.39;102057.78;7388392;19;20015;-57
2023/01/24 06:10:03;;;;;;;6.07;2.33;;;;;;;12.61;44.20;102062.66;7390191;19;20015;-58
2023/01/24 06:12:40;;;;;;;8.98;2.67;;;;;;;12.63;44.04;102057.44;7389977;19;20026;-58
2023/01/24 06:15:07;;;;;;;5.85;2.25;;;;;;;12.61;43.87;102059.88;7391764;19;20022;-58
2023/01/24 06:17:33;;;;;;;4.97;2.03;;;;;;;12.51;44.24;102056.13;7388773;19;20088;-58
2023/01/24 06:19:59;;;;;;;2.72;2.40;;;;;;;12.47;44.33;102061.03;7389246;19;20018;-58
2023/01/24 06:22:39;;;;;;;1.80;1.52;;;;;;;12.43;44.19;102057.50;7389327;19;20098;-58
2023/01/24 06:25:10;;;;;;;1.08;0.98;;;;;;;12.43;44.05;102065.13;7393521;19;20010;-58
2023/01/24 06:27:46;;;;;;;0.45;0.45;;;;;;;12.31;44.04;102066.56;7394184;19;20010;-58
2023/01/24 06:30:12;;;;;;;4.70;2.58;;;;;;;12.38;43.96;102071.22;7389772;19;20006;-57
2023/01/24 06:33:02;;;;;;;25.58;4.45;;;;;;;12.50;44.15;102070.50;7387104;19;20039;-58
2023/01/24 06:35:31;;;;;;;2.53;1.38;;;;;;;12.36;44.14;102073.66;7392823;19;20007;-58
2023/01/24 06:37:58;;;;;;;5.13;2.47;;;;;;;12.42;44.04;102074.72;7388195;19;20022;-58
2023/01/24 06:40:24;;;;;;;3.88;3.03;;;;;;;12.53;43.92;102076.03;7389936;19;20031;-58
2023/01/24 06:42:52;;;;;;;2.33;1.30;;;;;;;12.52;44.23;102070.88;7389673;19;20043;-58
2023/01/24 06:45:21;;;;;;;2.10;1.92;;;;;;;12.61;44.16;102071.06;7393876;19;20014;-57
2023/01/24 06:47:48;;;;;;;9.68;3.05;;;;;;;12.75;43.97;102070.72;7387709;19;20040;-58
2023/01/24 06:50:20;;;;;;;1.75;1.65;;;;;;;12.58;43.81;102069.16;7385987;19;20565;-58
2023/01/24 06:52:47;;;;;;;4.50;2.88;;;;;;;12.50;44.15;102076.09;7390173;19;20067;-57
2023/01/24 06:55:14;;;;;;;7.03;3.22;;;;;;;12.57;43.75;102070.34;7391795;19;20363;-57
2023/01/24 06:57:41;;;;;;;15.30;3.20;;;;;;;12.62;43.98;102072.63;7389212;19;20035;-57
2023/01/24 07:00:08;;;;;;;6.65;3.20;;;;;;;12.63;44.05;102074.19;7388045;19;20020;-57
2023/01/24 07:02:34;;;;;;;9.65;3.15;;;;;;;12.61;43.91;102076.66;7387099;19;20011;-57
2023/01/24 07:05:00;;;;;;;11.77;2.50;;;;;;;12.61;43.80;102083.03;7392480;19;20003;-57
2023/01/24 07:07:26;;;;;;;14.35;4.72;;;;;;;12.52;43.80;102068.88;7388375;19;20011;-57
2023/01/24 07:09:52;;;;;;;8.57;2.83;;;;;;;12.59;43.56;102084.69;7386433;19;20368;-57
2023/01/24 07:12:19;;;;;;;19.83;2.72;;;;;;;12.59;43.71;102079.09;7388237;19;20014;-57
2023/01/24 07:14:45;;;;;;;10.32;3.92;;;;;;;12.05;44.40;102073.13;7391009;19;20026;-57
2023/01/24 07:17:11;;;;;;;1.45;1.40;;;;;;;11.98;44.36;102074.06;7389192;19;20468;-57
2023/01/24 07:19:38;;;;;;;2.85;2.65;;;;;;;11.93;44.64;102080.16;7387798;19;20018;-57
2023/01/24 07:22:04;;;;;;;7.32;4.53;;;;;;;12.00;44.64;102077.22;7389176;19;20014;-57
2023/01/24 07:24:31;;;;;;;7.65;2.08;;;;;;;12.28;44.38;102063.88;7387799;19;20010;-57
2023/01/24 07:26:57;;;;;;;11.85;3.65;;;;;;;12.24;44.50;102079.91;7387983;19;20018;-57
2023/01/24 07:29:24;;;;;;;4.07;3.50;;;;;;;12.41;44.13;102084.31;7391047;19;20090;-57
2023/01/24 07:31:50;;;;;;;5.07;2.90;;;;;;;12.43;43.87;102085.44;7386600;19;20014;-57
2023/01/24 07:34:18;;;;;;;5.00;3.28;;;;;;;12.50;43.72;102099.25;7388687;19;20025;-57
2023/01/24 07:36:45;;;;;;;6.55;2.90;;;;;;;12.50;44.08;102093.66;7388528;19;20474;-57
2023/01/24 07:39:11;;;;;;;6.47;2.00;;;;;;;12.56;43.69;102096.75;7386938;19;20093;-57
2023/01/24 07:41:38;;;;;;;4.68;2.42;;;;;;;12.59;43.41;102107.03;7389440;19;20021;-57
2023/01/24 07:44:07;;;;;;;20.25;5.20;;;;;;;12.51;43.73;102100.06;7384736;19;20014;-57
2023/01/24 07:46:34;;;;;;;4.70;2.55;;;;;;;12.42;43.92;102109.03;7387123;19;20015;-57
2023/01/24 07:49:01;;;;;;;2.42;2.10;;;;;;;12.47;44.02;102102.94;7386569;19;20010;-57
2023/01/24 07:51:27;;;;;;;2.70;2.00;;;;;;;12.59;44.16;102098.66;7387774;19;20034;-58
2023/01/24 07:53:54;;;;;;;6.78;3.15;;;;;;;12.78;43.80;102103.38;7387752;19;20011;-58
2023/01/24 07:56:20;;;;;;;3.05;1.85;;;;;;;12.89;43.99;102109.50;7388071;19;20015;-57
2023/01/24 07:58:46;;;;;;;6.43;2.90;;;;;;;12.93;43.59;102108.19;7388372;19;20022;-57
2023/01/24 08:01:23;;;;;;;10.05;3.20;;;;;;;12.93;43.93;102099.81;7386716;19;20013;-57
2023/01/24 08:03:49;;;;;;;4.50;1.83;;;;;;;12.96;43.70;102106.56;7392199;19;20015;-57
2023/01/24 08:06:17;;;;;;;8.68;3.20;;;;;;;13.01;43.59;102117.22;7397817;19;20365;-56
2023/01/24 08:08:43;;;;;;;5.93;2.20;;;;;;;13.00;43.92;102110.03;7392690;19;20019;-57
2023/01/24 08:11:15;;;;;;;6.30;3.63;;;;;;;13.01;43.51;102116.44;7395289;19;20010;-57
2023/01/24 08:13:42;;;;;;;16.77;2.90;;;;;;;13.07;43.71;102109.09;7394480;19;20062;-57
2023/01/24 08:16:08;;;;;;;4.40;2.80;;;;;;;13.00;43.35;102115.63;7395266;19;20010;-57
2023/01/24 08:18:36;;;;;;;11.82;2.83;;;;;;;13.07;43.56;102115.50;7393063;19;20029;-57
2023/01/24 08:21:04;;;;;;;6.30;3.67;;;;;;;13.11;43.63;102116.19;7392714;19;20011;-57
2023/01/24 08:23:30;;;;;;;3.15;2.88;;;;;;;13.02;43.75;102121.56;7393684;19;20021;-56
2023/01/24 08:25:58;;;;;;;1.55;1.33;;;;;;;13.06;43.61;102124.34;7392629;19;20028;-57
2023/01/24 08:28:24;;;;;;;9.20;3.30;;;;;;;13.07;43.47;102131.47;7396327;19;20015;-57
2023/01/24 08:30:50;;;;;;;6.38;1.83;;;;;;;13.34;43.32;102129.97;7393029;19;20026;-57
2023/01/24 08:33:19;;;;;;;16.05;4.68;;;;;;;13.28;43.41;102130.94;7392236;19;20014;-57
2023/01/24 08:35:46;;;;;;;18.70;3.92;;;;;;;13.35;43.45;102137.16;7394907;19;20021;-56
2023/01/24 08:38:14;;;;;;;2.00;1.90;;;;;;;13.54;43.22;102136.25;7393008;19;20084;-57
2023/01/24 08:40:41;;;;;;;6.60;2.45;;;;;;;13.54;43.13;102139.03;7394411;19;20073;-57
2023/01/24 08:43:07;;;;;;;7.57;3.25;;;;;;;13.58;43.20;102139.72;7389951;19;20010;-57
2023/01/24 08:45:33;;;;;;;11.68;5.05;;;;;;;13.69;43.25;102145.03;7396544;19;20499;-57
2023/01/24 08:48:00;;;;;;;5.32;2.30;;;;;;;13.91;43.52;102136.81;7391571;19;20038;-57
2023/01/24 08:50:27;;;;;;;7.15;2.33;;;;;;;13.95;43.09;102126.31;7392129;19;20035;-57
2023/01/24 08:52:55;;;;;;;16.20;4.63;;;;;;;13.93;43.48;102121.16;7392769;19;20081;-57
2023/01/24 08:55:22;;;;;;;6.68;4.30;;;;;;;13.99;43.21;102129.81;7398300;19;20010;-57
2023/01/24 08:57:48;;;;;;;9.32;2.90;;;;;;;14.18;43.07;102121.22;7391947;19;20137;-56
2023/01/24 09:00:15;;;;;;;12.48;5.90;;;;;;;14.25;43.02;102120.25;7391109;19;20034;-56
2023/01/24 09:02:41;;;;;;;7.25;3.83;;;;;;;14.41;42.91;102120.97;7390460;19;20013;-56
2023/01/24 09:05:08;;;;;;;14.75;3.45;;;;;;;14.75;43.22;102111.09;7394457;19;20018;-57
2023/01/24 09:07:36;;;;;;;5.35;3.67;;;;;;;14.96;42.63;102119.59;7390565;19;20344;-57
2023/01/24 09:10:06;;;;;;;2.88;2.10;;;;;;;15.03;42.64;102127.78;7391573;19;20491;-56
2023/01/24 09:12:32;;;;;;;5.82;4.25;;;;;;;15.01;42.71;102124.63;7392312;19;20010;-57
2023/01/24 09:14:59;;;;;;;11.80;4.35;;;;;;;15.09;42.83;102122.41;7393236;19;20035;-57
2023/01/24 09:17:25;;;;;;;2.75;2.38;;;;;;;15.10;42.85;102124.75;7392727;19;20017;-57
2023/01/24 09:19:51;;;;;;;12.50;4.53;;;;;;;15.25;42.95;102124.25;7390095;19;20470;-56
2023/01/24 09:22:18;;;;;;;8.52;3.25;;;;;;;15.32;43.15;102119.19;7391827;19;20017;-57
2023/01/24 09:24:44;;;;;;;9.73;4.90;;;;;;;15.42;43.07;102117.25;7391234;19;20606;-57
2023/01/24 09:27:11;;;;;;;15.20;5.57;;;;;;;15.43;43.11;102118.81;7390278;19;20035;-58
2023/01/24 09:29:37;;;;;;;3.55;2.65;;;;;;;15.34;42.81;102118.72;7394470;19;20087;-57
2023/01/24 09:32:04;;;;;;;3.47;2.25;;;;;;;15.32;43.20;102124.81;7391633;19;20010;-58
2023/01/24 09:34:30;;;;;;;5.35;3.88;;;;;;;15.34;43.24;102116.72;7393138;19;20007;-57
2023/01/24 09:36:56;;;;;;;6.60;1.45;;;;;;;15.28;43.52;102112.91;7391550;19;20015;-57
2023/01/24 09:39:22;;;;;;;17.15;3.90;;;;;;;15.41;43.34;102110.06;7389758;19;20046;-56
2023/01/24 09:41:58;;;;;;;15.10;2.95;;;;;;;15.65;43.32;102114.03;7392098;19;20017;-57
2023/01/24 09:44:31;;;;;;;8.50;2.65;;;;;;;15.71;43.07;102106.59;7390185;19;20023;-57
2023/01/24 09:47:01;;;;;;;5.85;3.97;;;;;;;15.88;43.01;102110.78;7390930;19;20035;-57
2023/01/24 09:49:31;;;;;;;15.57;5.10;;;;;;;15.92;43.07;102112.22;7391613;19;20014;-58
2023/01/24 09:51:58;;;;;;;7.15;4.70;;;;;;;15.93;42.74;102107.38;7393677;19;20011;-58
2023/01/24 09:54:38;;;;;;;3.30;2.33;;;;;;;15.89;43.34;102101.13;7393643;19;20022;-58
2023/01/24 09:57:23;;;;;;;11.02;4.10;;;;;;;15.86;43.61;102097.19;7392138;19;20015;-58
2023/01/24 09:59:53;;;;;;;9.18;3.92;;;;;;;15.72;43.46;102096.94;7399077;19;20017;-59
2023/01/24 10:02:21;;;;;;;3.90;2.50;;;;;;;15.69;44.26;102103.47;7392835;19;20074;-59
2023/01/24 10:04:49;;;;;;;1.95;1.80;;;;;;;15.73;44.33;102101.31;7398817;19;20007;-56
2023/01/24 10:07:49;;;;;;;8.80;2.38;;;;;;;15.97;44.29;102102.41;7394986;19;20670;-56
2023/01/24 10:10:27;;;;;;;9.05;4.35;;;;;;;15.83;44.94;102097.34;7396414;19;20006;-56
2023/01/24 10:13:14;;;;;;;6.75;2.63;;;;;;;16.36;44.96;102096.09;7395912;19;20018;-56
2023/01/24 10:16:02;;;;;;;8.35;3.65;;;;;;;16.90;44.51;102091.94;7392975;19;20070;-56
2023/01/24 10:18:47;;;;;;;11.85;2.50;;;;;;;17.07;45.14;102098.84;7391874;19;20011;-57
2023/01/24 10:21:30;;;;;;;6.32;3.60;;;;;;;17.43;45.22;102091.22;7391663;19;20014;-56
2023/01/24 10:24:04;;;;;;;7.43;3.55;;;;;;;17.59;45.22;102090.16;7390372;19;20504;-56
2023/01/24 10:26:46;;;;;;;5.05;2.90;;;;;;;17.62;45.54;102088.44;7388974;19;20011;-57
2023/01/24 10:29:26;;;;;;;10.77;3.65;;;;;;;17.78;45.66;102091.72;7394574;19;20006;-57
2023/01/24 10:32:25;;;;;;;13.20;3.83;;;;;;;18.26;44.94;102091.97;7394989;19;20284;-57
2023/01/24 10:34:58;;;;;;;10.88;3.15;;;;;;;18.44;44.99;102075.75;7393221;19;20014;-57
2023/01/24 10:37:38;;;;;;;5.88;1.48;;;;;;;18.59;45.16;102073.81;7393221;19;20025;-57
2023/01/24 10:40:16;;;;;;;12.95;3.78;;;;;;;18.63;44.69;102076.44;7394040;19;20354;-57
2023/01/24 10:42:42;;;;;;;20.40;4.05;;;;;;;18.72;45.11;102076.41;7393343;19;20099;-58
2023/01/24 10:45:33;;;;;;;14.27;3.17;;;;;;;18.69;45.18;102069.69;7394623;19;20010;-58
2023/01/24 10:48:17;;;;;;;11.65;3.35;;;;;;;18.54;45.07;102068.03;7387975;19;20031;-56
2023/01/24 10:50:44;;;;;;;7.18;2.35;;;;;;;18.41;45.27;102075.91;7386301;19;20025;-57
2023/01/24 10:53:18;;;;;;;7.20;3.60;;;;;;;18.49;45.54;102082.81;7388937;19;20011;-56
2023/01/24 10:55:47;;;;;;;14.43;4.78;;;;;;;18.61;45.57;102084.63;7388129;19;20006;-56
2023/01/24 10:58:26;;;;;;;8.68;3.47;;;;;;;18.81;45.37;102082.00;7388935;19;20020;-56
2023/01/24 11:01:03;;;;;;;10.18;3.30;;;;;;;18.90;45.34;102079.94;7388989;19;20479;-56
2023/01/24 11:03:35;;;;;;;14.85;4.10;;;;;;;18.89;45.33;102077.56;7386698;19;20028;-56
2023/01/24 11:06:02;;;;;;;11.70;3.10;;;;;;;18.95;45.28;102075.66;7394236;19;20030;-58
2023/01/24 11:08:35;;;;;;;12.95;5.43;;;;;;;19.04;45.21;102080.44;7389067;19;20458;-56
2023/01/24 11:11:14;;;;;;;12.40;3.85;;;;;;;19.01;45.51;102073.75;7389662;19;20076;-57
2023/01/24 11:13:41;;;;;;;10.68;4.85;;;;;;;18.98;45.47;102069.03;7389595;19;20499;-57
2023/01/24 11:16:16;;;;;;;8.88;3.03;;;;;;;19.07;45.78;102069.00;7386660;19;20467;-56
2023/01/24 11:18:58;;;;;;;22.92;5.50;;;;;;;19.40;45.21;102061.25;7388999;19;20324;-57
2023/01/24 11:21:26;;;;;;;14.98;4.15;;;;;;;19.34;45.53;102051.06;7388576;19;20011;-57
2023/01/24 11:24:22;;;;;;;15.10;5.07;;;;;;;19.22;46.08;102044.41;7388194;19;20007;-57
2023/01/24 11:27:18;;;;;;;22.13;5.57;;;;;;;19.16;46.01;102039.91;7390680;19;20006;-57
2023/01/24 11:30:02;;;;;;;11.27;3.72;;;;;;;19.25;46.26;102049.06;7395477;19;20058;-57
2023/01/24 11:32:42;;;;;;;21.35;5.28;;;;;;;19.32;45.93;102045.88;7390184;19;20089;-57
2023/01/24 11:35:20;;;;;;;18.63;3.70;;;;;;;19.17;46.60;102042.22;7393454;19;20011;-57
2023/01/24 11:37:49;;;;;;;6.43;3.25;;;;;;;19.55;46.42;102047.94;7396481;19;20014;-57
2023/01/24 11:40:22;;;;;;;6.10;1.63;;;;;;;19.59;45.89;102042.84;7399996;19;20014;-57
2023/01/24 11:43:16;;;;;;;13.00;5.55;;;;;;;19.76;46.03;102040.34;7400693;19;20014;-57
2023/01/24 11:46:01;;;;;;;19.15;5.50;;;;;;;19.85;45.91;102034.59;7401011;19;20022;-57
2023/01/24 11:48:51;;;;;;;14.32;4.07;;;;;;;19.98;45.68;102039.94;7398134;19;20019;-57
2023/01/24 11:51:43;;;;;;;12.50;4.82;;;;;;;16.60;49.41;102043.72;7396281;19;20463;-57
2023/01/24 11:54:18;;;;;;;14.50;5.70;;;;;;;19.87;46.39;102031.25;7395915;19;20048;-57
2023/01/24 11:57:08;;;;;;;9.93;5.50;;;;;;;20.03;45.61;102023.06;7396656;19;20321;-57
2023/01/24 11:59:58;;;;;;;17.35;4.10;;;;;;;19.60;46.36;102027.44;7399626;19;20030;-57
2023/01/24 12:02:40;;;;;;;4.50;2.58;;;;;;;19.73;46.12;102020.75;7395294;19;20018;-57
2023/01/24 12:05:29;;;;;;;8.63;4.95;;;;;;;19.80;46.43;102026.00;7398575;19;20006;-57
2023/01/24 12:08:14;;;;;;;13.13;4.90;;;;;;;20.04;45.86;102021.00;7395647;19;20069;-57
2023/01/24 12:11:07;;;;;;;8.60;3.67;;;;;;;20.10;46.00;102017.00;7396395;19;20022;-57
2023/01/24 12:13:52;;;;;;;;;;;;;;;20.07;45.87;102020.03;7397458;19;20017;-57
2023/01/24 12:16:24;;;;;;;18.63;4.75;;;;;;;20.06;45.78;102009.97;7398816;19;19922;-57
2023/01/24 12:18:53;;;;;;;14.07;4.20;;;;;;;20.10;45.87;102019.03;7394674;19;20010;-57
2023/01/24 12:21:19;;;;;;;19.95;5.22;;;;;;;20.18;45.97;102011.75;7393862;19;20021;-57
2023/01/24 12:24:01;;;;;;;13.77;5.35;;;;;;;20.44;45.85;102017.56;7394326;19;20010;-57
2023/01/24 12:26:30;;;;;;;19.80;6.00;;;;;;;20.39;45.87;102013.38;7393772;19;20070;-57
2023/01/24 12:29:02;;;;;;;26.63;7.28;;;;;;;20.54;45.98;102010.50;7395136;19;20002;-57